Time;durP1;ratioP1;P1;durP2;ratioP2;P2;SDS_P1;SDS_P2;PMS_P1;PMS_P2;Temp;Humidity;BMP_temperature;BMP_pressure;BME280_temperature;BME280_humidity;BME280_pressure;Samples;Min_cycle;Max_cycle;Signal;HPM_P1;HPM_P2
2022/04/30 05:32:34;;;;;;;7.00;3.95;;;;;;;14.01;54.99;98941.34;5093155;27;20417;-60
2022/04/30 05:35:00;;;;;;;6.30;3.80;;;;;;;14.03;54.14;98952.47;5062429;28;20514;-61
2022/04/30 05:37:25;;;;;;;7.68;4.53;;;;;;;14.04;54.14;98948.88;5080666;28;20023;-61
2022/04/30 05:39:51;;;;;;;7.80;4.32;;;;;;;14.06;55.46;98956.56;5081369;28;20391;-61
2022/04/30 05:42:16;;;;;;;6.90;4.07;;;;;;;14.13;55.51;98959.38;5080051;28;20197;-61
2022/04/30 05:44:42;;;;;;;7.15;4.13;;;;;;;14.11;55.98;98956.09;5062564;28;20032;-61
2022/04/30 05:47:07;;;;;;;7.45;4.03;;;;;;;14.05;56.25;98949.69;5061546;28;20531;-60
2022/04/30 05:49:34;;;;;;;7.13;3.78;;;;;;;14.06;56.00;98951.34;5077203;28;20032;-61
2022/04/30 05:51:59;;;;;;;7.13;4.40;;;;;;;13.95;55.99;98938.56;5077192;28;20024;-60
2022/04/30 05:54:25;;;;;;;6.22;3.67;;;;;;;14.12;57.63;98958.53;5074399;28;20038;-61
2022/04/30 05:56:50;;;;;;;7.57;4.15;;;;;;;14.04;55.99;98951.50;5079978;28;20049;-60
2022/04/30 05:59:18;;;;;;;6.60;4.05;;;;;;;14.10;56.30;98959.69;5078475;28;20038;-60
2022/04/30 06:01:43;;;;;;;7.07;4.38;;;;;;;14.00;57.46;98952.81;5077820;28;20066;-60
2022/04/30 06:04:09;;;;;;;8.70;4.53;;;;;;;13.99;56.88;98952.94;5062168;28;20123;-60
2022/04/30 06:06:34;;;;;;;8.23;4.85;;;;;;;13.96;57.79;98951.47;5059983;28;20043;-61
2022/04/30 06:09:00;;;;;;;9.25;4.90;;;;;;;13.87;59.86;98939.34;5076367;28;20035;-60
2022/04/30 06:11:25;;;;;;;7.70;5.00;;;;;;;13.99;59.49;98958.19;5061346;28;20035;-61
2022/04/30 06:13:51;;;;;;;8.00;5.00;;;;;;;13.88;59.09;98954.06;5064287;28;20040;-60
2022/04/30 06:16:16;;;;;;;6.57;4.55;;;;;;;13.73;60.41;98935.53;5070131;28;20423;-61
2022/04/30 06:18:42;;;;;;;7.93;4.53;;;;;;;13.69;58.61;98921.16;5056690;28;20564;-60
2022/04/30 06:21:08;;;;;;;8.23;4.70;;;;;;;14.00;59.19;98970.25;5079239;28;20025;-60
2022/04/30 06:23:33;;;;;;;7.30;4.60;;;;;;;13.92;59.65;98963.22;5083884;28;20032;-60
2022/04/30 06:25:59;;;;;;;7.18;4.78;;;;;;;13.95;60.93;98967.31;5077710;28;20063;-61
2022/04/30 06:28:25;;;;;;;7.68;4.72;;;;;;;13.92;59.86;98960.59;5090818;28;20142;-61
2022/04/30 06:30:50;;;;;;;8.15;4.55;;;;;;;13.86;60.07;98969.06;5077557;28;20371;-60
2022/04/30 06:33:15;;;;;;;8.50;5.07;;;;;;;13.96;59.67;98974.16;5070562;28;20207;-60
2022/04/30 06:35:41;;;;;;;7.57;4.80;;;;;;;13.93;60.38;98974.50;5079469;28;20028;-61
2022/04/30 06:38:06;;;;;;;8.65;4.80;;;;;;;13.90;60.54;98974.81;5058129;28;20035;-61
2022/04/30 06:40:32;;;;;;;7.07;4.88;;;;;;;13.91;60.06;98969.44;5081634;28;20040;-61
2022/04/30 06:42:59;;;;;;;7.47;4.82;;;;;;;13.92;61.08;98976.28;5083257;28;20021;-60
2022/04/30 06:45:24;;;;;;;8.40;5.38;;;;;;;13.70;59.83;98930.63;5017090;28;20036;-60
2022/04/30 06:47:50;;;;;;;7.78;4.93;;;;;;;13.70;60.35;98928.00;5068481;28;20036;-60
2022/04/30 06:50:15;;;;;;;7.07;4.28;;;;;;;14.02;59.87;98969.16;5066235;28;20036;-60
2022/04/30 06:58:13;;;;;;;8.00;5.10;;;;;;;14.14;58.84;98977.50;5034272;28;20128;-60
2022/04/30 07:03:27;;;;;;;6.78;4.22;;;;;;;14.02;59.87;98968.34;5074645;28;20048;-60
2022/04/30 07:06:02;;;;;;;7.72;4.72;;;;;;;14.13;59.09;98972.47;5060219;28;20491;-60
2022/04/30 07:08:28;;;;;;;9.07;4.93;;;;;;;14.10;61.63;98973.56;5060168;28;20077;-61
2022/04/30 07:10:54;;;;;;;8.15;4.32;;;;;;;13.89;58.77;98942.63;5057773;28;20504;-61
2022/04/30 07:13:19;;;;;;;7.88;4.32;;;;;;;14.11;58.50;98977.84;5056890;28;20030;-60
2022/04/30 07:15:45;;;;;;;8.70;5.10;;;;;;;14.12;60.38;98976.03;5059177;28;20029;-60
2022/04/30 07:18:10;;;;;;;6.50;4.43;;;;;;;14.12;60.61;98971.63;5070373;28;20024;-61
2022/04/30 07:20:36;;;;;;;7.30;4.57;;;;;;;14.23;60.86;98975.75;5061430;28;20844;-60
2022/04/30 07:23:02;;;;;;;8.77;5.28;;;;;;;14.23;60.54;98973.13;5062038;28;20040;-61
2022/04/30 07:25:27;;;;;;;7.25;4.72;;;;;;;14.29;60.10;98969.88;5053319;28;20068;-60
2022/04/30 07:27:52;;;;;;;7.18;4.80;;;;;;;13.97;57.76;98923.53;5070723;28;20027;-60
2022/04/30 07:30:18;;;;;;;7.57;4.95;;;;;;;14.25;58.80;98979.00;5059072;28;20528;-60
2022/04/30 07:32:43;;;;;;;8.23;4.60;;;;;;;14.32;57.17;98977.41;5085033;28;20093;-60
2022/04/30 07:35:09;;;;;;;7.07;4.70;;;;;;;13.99;60.03;98938.06;5070462;28;20025;-61
2022/04/30 07:37:34;;;;;;;7.55;4.85;;;;;;;14.26;59.70;98985.88;5068532;28;20033;-60
2022/04/30 07:39:59;;;;;;;8.63;4.10;;;;;;;14.22;59.90;98979.34;5061581;28;20106;-60
2022/04/30 07:42:25;;;;;;;7.63;4.38;;;;;;;14.16;59.60;98972.94;5064962;28;20040;-60
2022/04/30 07:44:50;;;;;;;9.73;4.28;;;;;;;14.09;61.08;98974.56;5050185;28;20031;-60
2022/04/30 07:47:16;;;;;;;7.07;4.45;;;;;;;13.87;61.54;98941.94;5065070;28;20037;-60
2022/04/30 07:49:41;;;;;;;6.93;4.43;;;;;;;14.19;61.12;98984.88;5067050;28;20025;-61
2022/04/30 07:52:07;;;;;;;7.72;4.82;;;;;;;14.06;62.83;98974.88;5047374;28;20101;-60
2022/04/30 07:54:33;;;;;;;7.60;4.90;;;;;;;13.97;63.09;98989.69;5049869;28;20025;-60
2022/04/30 07:56:59;;;;;;;6.68;4.78;;;;;;;13.97;61.79;98979.25;5065595;28;20035;-61
2022/04/30 07:59:25;;;;;;;7.72;4.80;;;;;;;13.96;62.49;98980.25;5043934;28;20032;-60
2022/04/30 08:01:51;;;;;;;9.00;5.30;;;;;;;13.94;62.66;98968.28;5061399;28;20586;-60
2022/04/30 08:04:16;;;;;;;7.88;4.93;;;;;;;13.91;62.94;98973.81;5061252;28;20877;-60
2022/04/30 08:06:42;;;;;;;6.88;4.15;;;;;;;13.89;61.59;98978.38;5012766;28;21613;-60
2022/04/30 08:09:07;;;;;;;6.60;4.40;;;;;;;13.89;59.97;98962.69;5062445;28;20043;-61
2022/04/30 08:11:33;;;;;;;7.85;4.78;;;;;;;13.88;60.88;98969.72;5081237;28;20032;-60
2022/04/30 08:13:58;;;;;;;8.98;4.88;;;;;;;13.91;61.96;98984.28;5045220;28;20132;-59
2022/04/30 08:16:24;;;;;;;9.43;4.18;;;;;;;13.81;59.70;98964.31;5045100;28;20042;-60
2022/04/30 08:18:50;;;;;;;8.30;4.05;;;;;;;13.95;58.92;98977.78;5043355;28;20600;-61
2022/04/30 08:21:15;;;;;;;7.05;4.40;;;;;;;13.81;60.68;98972.16;5060381;28;20032;-60
2022/04/30 08:23:40;;;;;;;9.02;4.45;;;;;;;13.94;60.62;98971.72;5055236;28;20854;-61
2022/04/30 08:26:06;;;;;;;6.93;4.43;;;;;;;14.08;58.42;98978.16;5054702;28;20040;-60
2022/04/30 08:28:32;;;;;;;7.80;3.97;;;;;;;14.02;57.39;98986.63;5050317;28;20030;-59
2022/04/30 08:30:57;;;;;;;6.72;4.40;;;;;;;14.06;58.32;98976.69;5054329;28;20036;-60
2022/04/30 08:33:23;;;;;;;7.70;4.57;;;;;;;14.04;59.83;98975.03;5054249;28;20028;-59
2022/04/30 08:35:49;;;;;;;6.75;4.38;;;;;;;14.11;59.66;98969.16;5064884;28;20086;-60
2022/04/30 08:38:15;;;;;;;6.65;4.07;;;;;;;14.04;57.72;98972.41;5038883;28;20028;-60
2022/04/30 08:40:44;;;;;;;8.10;4.78;;;;;;;13.84;58.96;98935.25;5052202;28;20656;-60
2022/04/30 08:43:14;;;;;;;8.13;4.60;;;;;;;13.96;58.76;98964.56;5052910;28;20035;-60
2022/04/30 08:45:41;;;;;;;7.22;4.35;;;;;;;14.04;58.42;98967.19;5058680;28;20028;-61
2022/04/30 08:48:08;;;;;;;8.55;4.30;;;;;;;13.74;57.86;98929.31;5060322;28;20039;-59
2022/04/30 08:50:33;;;;;;;8.35;4.57;;;;;;;13.93;59.00;98966.66;5061923;28;20043;-61
2022/04/30 08:52:59;;;;;;;7.07;4.65;;;;;;;13.93;58.93;98969.28;5061089;28;20368;-60
2022/04/30 08:55:24;;;;;;;8.05;4.63;;;;;;;13.95;59.99;98975.16;5062500;28;20681;-60
2022/04/30 08:57:50;;;;;;;8.93;4.95;;;;;;;14.04;59.92;98969.81;5061785;28;20035;-60
2022/04/30 09:00:16;;;;;;;9.15;4.82;;;;;;;14.09;58.71;98963.28;5043998;28;20041;-60
2022/04/30 09:02:52;;;;;;;7.22;4.82;;;;;;;14.08;60.79;98957.22;5058265;28;20081;-59
2022/04/30 09:05:17;;;;;;;6.95;4.47;;;;;;;14.14;61.27;98967.03;5057485;28;20059;-60
2022/04/30 09:07:53;;;;;;;8.43;4.10;;;;;;;14.17;59.86;98964.13;5056663;28;20467;-60
2022/04/30 09:10:28;;;;;;;7.18;4.47;;;;;;;13.98;60.32;98930.38;5054265;28;20093;-60
2022/04/30 09:12:53;;;;;;;6.75;3.72;;;;;;;14.17;59.08;98963.31;5053738;28;20032;-60
2022/04/30 09:15:20;;;;;;;7.13;4.70;;;;;;;14.20;59.90;98965.59;5043733;28;20032;-61
2022/04/30 09:17:58;;;;;;;8.20;4.70;;;;;;;14.27;59.45;98961.34;5046560;28;20032;-60
2022/04/30 09:20:24;;;;;;;7.70;4.15;;;;;;;14.19;59.86;98959.53;5048969;28;20064;-60
2022/04/30 09:22:49;;;;;;;6.70;4.00;;;;;;;14.35;58.14;98947.50;5045751;28;20098;-60
2022/04/30 09:25:15;;;;;;;7.75;4.13;;;;;;;14.45;57.54;98948.16;5050125;28;20037;-60
2022/04/30 09:27:43;;;;;;;7.90;3.75;;;;;;;14.58;58.25;98955.56;5052550;28;20672;-60
2022/04/30 09:30:15;;;;;;;6.53;3.95;;;;;;;14.59;58.35;98957.22;5051401;28;20036;-60
2022/04/30 09:32:41;;;;;;;7.40;3.88;;;;;;;14.66;56.87;98955.59;5057382;28;20624;-60
2022/04/30 09:38:01;;;;;;;5.75;3.53;;;;;;;14.72;58.24;98952.31;5064615;28;20437;-60
2022/04/30 09:40:27;;;;;;;5.45;3.17;;;;;;;14.70;56.75;98954.28;5054834;28;20032;-60
2022/04/30 09:42:52;;;;;;;6.13;3.53;;;;;;;14.55;58.03;98920.06;5052438;28;20086;-61
2022/04/30 09:45:36;;;;;;;6.88;3.75;;;;;;;14.75;58.00;98956.41;5047775;28;20032;-60
2022/04/30 09:53:56;;;;;;;6.40;3.67;;;;;;;14.64;57.65;98954.09;5057287;28;20098;-60
2022/04/30 09:56:29;;;;;;;5.60;3.30;;;;;;;14.80;57.50;98943.63;5066578;28;20125;-60
2022/04/30 09:58:55;;;;;;;7.40;4.22;;;;;;;14.90;56.92;98940.88;5045224;28;20373;-60
2022/04/30 10:01:20;;;;;;;8.05;5.00;;;;;;;14.93;55.90;98935.28;5068275;28;20047;-60
2022/04/30 10:03:46;;;;;;;6.28;3.70;;;;;;;14.98;53.64;98927.75;5071078;28;20829;-59
2022/04/30 10:06:12;;;;;;;5.60;3.28;;;;;;;14.85;53.93;98909.13;5069707;28;20471;-60
2022/04/30 10:08:40;;;;;;;6.10;3.50;;;;;;;15.05;54.45;98899.13;5073341;28;21127;-59
2022/04/30 10:11:27;;;;;;;6.15;3.45;;;;;;;15.27;53.03;98926.41;5052312;28;20020;-59
2022/04/30 10:14:02;;;;;;;6.20;3.40;;;;;;;15.17;53.81;98919.56;5042061;28;20028;-59
2022/04/30 10:16:30;;;;;;;5.70;3.10;;;;;;;15.14;52.70;98911.22;5073807;28;20046;-60
2022/04/30 10:19:16;;;;;;;5.72;3.03;;;;;;;15.22;53.79;98923.47;5065429;28;20028;-59
2022/04/30 10:21:41;;;;;;;6.05;3.40;;;;;;;15.40;54.32;98905.72;5059141;28;20044;-59
2022/04/30 10:24:12;;;;;;;8.02;4.70;;;;;;;15.51;54.94;98907.97;5064463;28;20039;-60
2022/04/30 10:26:38;;;;;;;6.10;3.30;;;;;;;15.33;54.68;98897.75;5067857;28;20082;-59
2022/04/30 10:29:11;;;;;;;5.40;3.28;;;;;;;15.14;53.66;98856.22;5069980;28;20111;-59
2022/04/30 10:31:44;;;;;;;6.00;3.22;;;;;;;15.47;52.05;98892.78;5054671;28;20077;-60
2022/04/30 10:34:10;;;;;;;5.45;3.08;;;;;;;15.43;51.36;98897.53;5016264;28;20040;-59
2022/04/30 10:36:38;;;;;;;6.93;3.35;;;;;;;15.60;51.34;98885.19;5059755;28;20536;-59
2022/04/30 10:39:06;;;;;;;5.97;3.00;;;;;;;15.64;50.98;98898.78;5045637;28;20366;-60
2022/04/30 10:41:42;;;;;;;6.07;3.20;;;;;;;15.60;51.26;98890.44;5057753;28;20140;-60
2022/04/30 10:44:08;;;;;;;6.80;3.33;;;;;;;15.62;50.96;98893.69;5056820;28;20074;-60
2022/04/30 10:46:38;;;;;;;5.68;3.05;;;;;;;15.55;50.96;98877.84;5039924;28;20045;-59
2022/04/30 10:49:05;;;;;;;5.78;3.28;;;;;;;15.71;49.99;98878.75;5042161;28;20025;-59
2022/04/30 10:51:42;;;;;;;5.90;3.30;;;;;;;15.76;50.45;98863.38;5061205;28;20039;-63
2022/04/30 10:54:13;;;;;;;6.65;2.97;;;;;;;15.97;51.34;98870.63;5047883;28;20043;-59
2022/04/30 10:56:39;;;;;;;5.38;3.33;;;;;;;15.71;50.58;98840.25;5058571;28;20025;-58
2022/04/30 10:59:05;;;;;;;4.95;3.08;;;;;;;15.68;50.62;98831.91;5063622;28;20024;-60
2022/04/30 11:01:30;;;;;;;6.38;3.40;;;;;;;15.85;51.26;98856.28;5063772;28;20036;-59
2022/04/30 11:03:56;;;;;;;6.07;3.08;;;;;;;15.91;51.10;98860.81;5062865;28;20028;-59
2022/04/30 11:06:25;;;;;;;5.50;3.28;;;;;;;15.93;50.69;98857.06;5065793;28;20032;-60
2022/04/30 11:08:57;;;;;;;5.93;3.35;;;;;;;15.88;51.70;98861.16;5059923;28;20036;-59
2022/04/30 11:11:23;;;;;;;5.75;2.97;;;;;;;16.03;48.67;98848.16;5057916;28;20116;-60
2022/04/30 11:14:19;;;;;;;5.25;2.88;;;;;;;16.19;48.30;98847.19;5059333;28;20028;-60
2022/04/30 11:16:47;;;;;;;5.50;2.92;;;;;;;16.04;48.94;98839.28;5057391;28;20042;-59
2022/04/30 11:19:23;;;;;;;5.65;3.00;;;;;;;15.90;47.05;98785.78;5057039;28;20028;-59
2022/04/30 11:21:50;;;;;;;5.15;2.72;;;;;;;16.31;47.36;98820.38;5061408;28;20040;-61
2022/04/30 11:24:26;;;;;;;4.85;2.80;;;;;;;16.48;46.68;98817.63;5048388;28;20040;-59
2022/04/30 11:26:59;;;;;;;4.60;2.47;;;;;;;16.62;44.65;98822.09;5054841;28;20090;-60
2022/04/30 11:29:25;;;;;;;4.97;2.67;;;;;;;16.67;45.22;98809.25;5037706;28;20032;-59
2022/04/30 11:31:54;;;;;;;4.57;2.58;;;;;;;16.78;45.11;98809.81;5057659;28;20062;-59
2022/04/30 11:34:20;;;;;;;4.53;2.42;;;;;;;16.85;44.55;98806.31;5057477;28;20020;-59
2022/04/30 11:36:51;;;;;;;5.13;2.70;;;;;;;16.96;43.74;98796.34;5051620;28;20024;-59
2022/04/30 11:39:18;;;;;;;4.88;2.47;;;;;;;16.96;43.46;98802.41;5062767;28;20035;-60
2022/04/30 11:41:45;;;;;;;5.38;2.45;;;;;;;17.05;41.55;98798.69;5050496;28;20027;-59
2022/04/30 11:44:15;;;;;;;4.78;2.60;;;;;;;17.01;41.97;98799.22;5064048;28;20024;-59
2022/04/30 11:46:42;;;;;;;4.35;2.40;;;;;;;16.95;41.87;98779.75;5044220;28;20036;-60
2022/04/30 11:49:15;;;;;;;4.75;2.25;;;;;;;17.00;42.25;98771.34;5040078;28;20116;-59
2022/04/30 11:51:42;;;;;;;5.82;2.55;;;;;;;17.17;42.10;98782.47;5082494;28;20024;-59
2022/04/30 11:54:09;;;;;;;5.55;2.83;;;;;;;16.93;43.14;98734.50;5077071;28;20107;-59
2022/04/30 11:56:35;;;;;;;4.82;2.22;;;;;;;17.27;42.10;98778.56;5083288;28;20053;-60
2022/04/30 11:59:01;;;;;;;4.88;2.35;;;;;;;17.33;41.79;98777.03;5068615;28;20029;-58
2022/04/30 12:01:30;;;;;;;5.72;2.40;;;;;;;17.34;42.60;98768.16;5053516;28;20515;-60
2022/04/30 12:04:05;;;;;;;4.90;2.30;;;;;;;17.25;40.84;98772.69;5072455;28;20085;-60
2022/04/30 12:06:31;;;;;;;5.38;2.55;;;;;;;17.16;40.70;98763.28;5071353;28;20032;-59
2022/04/30 12:08:56;;;;;;;4.63;2.50;;;;;;;17.21;40.59;98765.34;5059662;28;20670;-60
2022/04/30 12:11:22;;;;;;;4.45;2.10;;;;;;;17.13;39.02;98747.88;5056267;28;20123;-61
2022/04/30 12:14:02;;;;;;;5.45;2.10;;;;;;;17.26;38.38;98755.91;5056033;28;20027;-59
2022/04/30 12:16:36;;;;;;;4.90;2.35;;;;;;;17.39;39.02;98754.44;5070917;28;20027;-60
2022/04/30 12:24:45;;;;;;;4.72;2.40;;;;;;;17.32;41.19;98711.50;5061583;28;20708;-60
2022/04/30 12:27:19;;;;;;;5.10;2.40;;;;;;;17.55;43.04;98742.88;5066203;28;20137;-59
2022/04/30 12:29:46;;;;;;;5.88;2.20;;;;;;;17.64;43.65;98744.41;5068172;28;20038;-59
2022/04/30 12:32:11;;;;;;;4.55;2.30;;;;;;;17.59;42.81;98731.81;5079654;28;20410;-59
2022/04/30 12:34:41;;;;;;;5.13;2.60;;;;;;;17.69;43.51;98731.50;5079188;28;20028;-60
2022/04/30 12:37:07;;;;;;;4.60;2.30;;;;;;;17.60;42.96;98724.75;5062966;28;20086;-59
2022/04/30 12:39:33;;;;;;;4.70;2.50;;;;;;;17.41;41.74;98736.66;5057423;28;20478;-59
2022/04/30 12:41:59;;;;;;;5.43;2.30;;;;;;;17.59;44.60;98729.16;5070910;28;20042;-60
2022/04/30 12:44:25;;;;;;;5.13;2.60;;;;;;;17.54;45.91;98712.34;5067811;28;20038;-60
2022/04/30 12:46:51;;;;;;;4.13;2.00;;;;;;;17.17;43.81;98680.00;5060532;28;20376;-60
2022/04/30 12:49:19;;;;;;;5.22;2.38;;;;;;;17.42;44.92;98707.56;5052669;28;20034;-60
2022/04/30 12:51:48;;;;;;;4.60;2.03;;;;;;;17.28;45.30;98674.25;5060714;28;20055;-60
2022/04/30 12:54:13;;;;;;;5.55;2.35;;;;;;;17.56;43.93;98699.81;5040339;28;20557;-60
2022/04/30 12:56:40;;;;;;;4.43;2.13;;;;;;;17.63;43.46;98687.53;5075660;28;20024;-59
2022/04/30 12:59:07;;;;;;;4.90;2.40;;;;;;;17.72;42.26;98698.75;5045318;28;20025;-60
2022/04/30 13:01:35;;;;;;;4.80;2.05;;;;;;;17.88;43.29;98695.09;5054733;28;20040;-60
2022/04/30 13:04:03;;;;;;;5.22;2.05;;;;;;;17.77;43.59;98691.91;5057038;28;20039;-60
2022/04/30 13:06:29;;;;;;;4.43;2.20;;;;;;;17.81;42.90;98689.72;5057353;28;20259;-60
2022/04/30 13:14:27;;;;;;;4.25;1.90;;;;;;;17.40;42.05;98645.69;5058406;28;20035;-59
2022/04/30 13:16:52;;;;;;;5.38;2.00;;;;;;;17.71;42.05;98679.53;5059984;28;20395;-59
2022/04/30 13:19:18;;;;;;;4.82;2.15;;;;;;;17.80;42.97;98675.78;5041949;28;20086;-60
2022/04/30 13:21:46;;;;;;;4.70;2.28;;;;;;;17.76;42.33;98679.78;5059378;28;20048;-59
2022/04/30 13:24:16;;;;;;;5.13;2.47;;;;;;;17.77;42.60;98665.63;5059690;28;20514;-60
2022/04/30 13:26:42;;;;;;;5.95;2.90;;;;;;;17.82;45.21;98675.59;5057915;28;20069;-59
2022/04/30 13:29:11;;;;;;;5.93;2.38;;;;;;;17.65;46.62;98664.50;5060248;28;20445;-60
2022/04/30 13:31:40;;;;;;;4.63;2.23;;;;;;;17.51;46.43;98654.91;5059751;28;20039;-59
2022/04/30 13:34:06;;;;;;;5.57;2.80;;;;;;;17.63;46.15;98654.19;5060542;28;20038;-59
2022/04/30 13:36:33;;;;;;;4.85;2.50;;;;;;;17.46;45.89;98652.81;5038517;28;20025;-59
2022/04/30 13:38:59;;;;;;;5.43;2.10;;;;;;;17.48;46.42;98646.34;5055140;28;20417;-60
2022/04/30 13:41:25;;;;;;;4.95;2.45;;;;;;;17.35;48.38;98646.25;5070600;28;20045;-59
2022/04/30 13:43:51;;;;;;;5.35;2.33;;;;;;;17.16;47.37;98642.44;5060145;28;20370;-59
2022/04/30 13:46:16;;;;;;;6.88;2.60;;;;;;;17.27;46.71;98641.94;5014618;28;20119;-60
2022/04/30 13:48:42;;;;;;;4.53;2.50;;;;;;;16.95;46.89;98609.06;5056691;28;20067;-60
2022/04/30 13:51:08;;;;;;;4.57;2.13;;;;;;;17.19;47.07;98646.47;5056047;28;20442;-59
2022/04/30 13:53:33;;;;;;;5.65;2.55;;;;;;;17.28;46.65;98640.09;5045562;28;20039;-60
2022/04/30 13:55:59;;;;;;;4.72;2.42;;;;;;;17.15;44.88;98611.88;5078702;28;20382;-60
2022/04/30 13:58:24;;;;;;;6.05;2.28;;;;;;;17.40;44.21;98633.34;5047526;28;20039;-59
2022/04/30 14:00:49;;;;;;;6.13;2.20;;;;;;;17.36;44.35;98629.47;5064193;28;20043;-59
2022/04/30 14:03:17;;;;;;;4.88;2.28;;;;;;;17.41;46.31;98627.13;5061234;28;20028;-60
2022/04/30 14:05:43;;;;;;;4.60;2.05;;;;;;;17.42;42.19;98623.47;5041418;28;20032;-60
2022/04/30 14:08:09;;;;;;;5.13;2.17;;;;;;;17.53;43.60;98618.72;5057645;28;20501;-60
2022/04/30 14:10:35;;;;;;;4.75;2.13;;;;;;;17.33;44.00;98611.47;5059894;28;20771;-60
2022/04/30 14:15:44;;;;;;;5.28;2.30;;;;;;;17.45;41.82;98604.69;5059228;28;20529;-60
2022/04/30 14:18:15;;;;;;;4.40;2.10;;;;;;;17.64;40.21;98612.94;5064565;28;20029;-60
2022/04/30 14:20:41;;;;;;;4.63;2.28;;;;;;;17.72;38.42;98598.84;5062925;28;20064;-60
2022/04/30 14:23:07;;;;;;;4.25;2.13;;;;;;;17.72;38.68;98590.94;5063137;28;20131;-60
2022/04/30 14:25:34;;;;;;;5.68;2.00;;;;;;;17.59;43.42;98565.38;5057695;28;20470;-59
2022/04/30 14:28:00;;;;;;;5.00;2.10;;;;;;;17.88;44.04;98584.63;5060260;28;20024;-60
2022/04/30 14:30:27;;;;;;;4.88;2.47;;;;;;;17.72;43.02;98578.59;5041296;28;20033;-60
2022/04/30 14:32:52;;;;;;;5.60;2.28;;;;;;;17.90;40.00;98588.66;5062493;28;20060;-61
2022/04/30 14:35:18;;;;;;;4.97;2.30;;;;;;;18.17;41.07;98581.75;5061568;28;20110;-60
2022/04/30 14:37:44;;;;;;;5.38;2.40;;;;;;;18.40;40.18;98583.31;5068026;28;20398;-60
2022/04/30 14:40:10;;;;;;;4.20;1.88;;;;;;;18.33;40.20;98577.19;5050525;28;20033;-60
2022/04/30 14:42:37;;;;;;;4.93;2.20;;;;;;;18.35;41.16;98581.25;5061724;28;20021;-60
2022/04/30 14:45:03;;;;;;;5.30;2.10;;;;;;;18.36;39.13;98568.88;5063388;28;20016;-62
2022/04/30 14:47:28;;;;;;;5.78;2.20;;;;;;;18.47;38.62;98557.78;5043555;28;20032;-60
2022/04/30 14:49:55;;;;;;;4.43;2.05;;;;;;;18.50;40.39;98553.97;5057051;28;20028;-60
2022/04/30 14:52:24;;;;;;;4.03;2.10;;;;;;;18.32;40.05;98563.19;5064818;28;20031;-60
2022/04/30 14:54:50;;;;;;;4.72;2.05;;;;;;;17.88;40.41;98522.31;5066477;28;20028;-60
2022/04/30 14:57:16;;;;;;;5.03;2.20;;;;;;;17.96;42.83;98552.88;5048602;28;20099;-61
2022/04/30 14:59:41;;;;;;;4.53;2.08;;;;;;;18.02;45.19;98549.50;5070599;28;20029;-61
2022/04/30 15:02:07;;;;;;;4.03;1.92;;;;;;;18.02;42.24;98552.94;5065525;28;20025;-61
2022/04/30 15:04:32;;;;;;;5.68;2.20;;;;;;;17.92;42.96;98549.84;5058966;28;20021;-60
2022/04/30 15:06:59;;;;;;;4.40;2.33;;;;;;;18.01;44.74;98539.97;5064697;28;20273;-60
2022/04/30 15:09:26;;;;;;;4.65;2.20;;;;;;;18.03;43.61;98509.84;5062684;28;20446;-60
2022/04/30 15:11:51;;;;;;;4.45;2.25;;;;;;;18.15;42.12;98514.56;5060073;28;20082;-59
2022/04/30 15:14:17;;;;;;;6.47;2.33;;;;;;;18.24;43.95;98540.50;5065611;28;20036;-60
2022/04/30 15:16:42;;;;;;;4.72;1.80;;;;;;;18.20;40.28;98549.78;5061772;28;20025;-61
2022/04/30 15:19:08;;;;;;;4.85;2.40;;;;;;;17.94;41.48;98515.44;5064157;28;20021;-60
2022/04/30 15:21:33;;;;;;;4.82;2.42;;;;;;;18.15;41.88;98546.94;5062475;28;20039;-60
2022/04/30 15:23:59;;;;;;;5.25;2.30;;;;;;;18.10;43.53;98543.25;5057521;28;21151;-60
2022/04/30 15:26:24;;;;;;;4.28;2.10;;;;;;;18.06;43.15;98543.66;5062288;28;20033;-60
2022/04/30 15:28:50;;;;;;;4.78;2.15;;;;;;;18.15;42.55;98541.66;5064278;28;20024;-60
2022/04/30 15:31:16;;;;;;;4.20;2.03;;;;;;;18.04;42.25;98498.31;5047098;28;20036;-60
2022/04/30 15:33:41;;;;;;;4.80;2.00;;;;;;;18.04;41.87;98500.94;5063096;28;20032;-60
2022/04/30 15:36:07;;;;;;;4.60;2.13;;;;;;;18.19;40.92;98536.84;5063203;28;20112;-60
2022/04/30 15:38:32;;;;;;;4.40;2.30;;;;;;;18.16;39.67;98534.56;5062034;28;20055;-61
2022/04/30 15:40:58;;;;;;;5.00;2.47;;;;;;;18.15;39.87;98538.22;5063070;28;20042;-59
2022/04/30 15:43:24;;;;;;;5.10;2.53;;;;;;;18.10;39.25;98525.66;5062935;28;20036;-60
2022/04/30 15:45:49;;;;;;;5.15;2.70;;;;;;;17.77;38.78;98499.94;5063710;28;20383;-60
2022/04/30 15:53:48;;;;;;;5.20;2.67;;;;;;;17.94;40.64;98529.41;5061392;28;20051;-59
2022/04/30 15:56:14;;;;;;;5.38;2.05;;;;;;;17.84;42.23;98523.66;5060469;28;20023;-60
2022/04/30 15:58:44;;;;;;;4.78;2.30;;;;;;;17.72;42.49;98519.94;5060999;28;20036;-60
2022/04/30 16:01:12;;;;;;;5.07;2.50;;;;;;;17.64;43.59;98520.91;5059960;28;20040;-60
2022/04/30 16:03:38;;;;;;;5.18;2.25;;;;;;;17.33;44.46;98534.44;5045757;28;20028;-60
2022/04/30 16:06:04;;;;;;;4.78;2.30;;;;;;;17.05;45.89;98524.72;5065060;28;20036;-60
2022/04/30 16:08:29;;;;;;;4.95;2.30;;;;;;;16.98;47.03;98526.47;5033403;28;20589;-60
2022/04/30 16:10:55;;;;;;;4.93;2.60;;;;;;;16.90;46.79;98520.34;5065487;28;20043;-59
2022/04/30 16:13:20;;;;;;;6.55;3.72;;;;;;;16.97;47.18;98528.25;5063063;28;20428;-59
2022/04/30 16:15:47;;;;;;;6.43;3.33;;;;;;;17.03;46.88;98531.94;5061406;28;20059;-59
2022/04/30 16:18:12;;;;;;;5.35;2.80;;;;;;;16.83;46.00;98489.75;5076882;28;20657;-59
2022/04/30 16:20:38;;;;;;;5.47;3.05;;;;;;;17.12;44.27;98525.56;5043469;28;20544;-60
2022/04/30 16:23:04;;;;;;;5.30;2.53;;;;;;;17.13;43.93;98514.06;5063520;28;20544;-59
2022/04/30 16:25:30;;;;;;;4.50;2.50;;;;;;;17.14;42.89;98523.59;5060690;28;20482;-58
2022/04/30 16:27:56;;;;;;;4.82;2.65;;;;;;;16.90;45.63;98501.13;5059111;28;20028;-60
2022/04/30 16:30:22;;;;;;;5.53;2.55;;;;;;;16.99;43.68;98528.88;5060528;28;20593;-59
2022/04/30 16:32:48;;;;;;;6.28;3.00;;;;;;;16.93;44.96;98531.47;5065089;28;20033;-60
2022/04/30 16:35:15;;;;;;;6.03;2.67;;;;;;;16.73;46.17;98518.91;5060774;28;20119;-60
2022/04/30 16:37:41;;;;;;;4.90;2.55;;;;;;;16.65;46.49;98511.97;5061591;28;20645;-59
2022/04/30 16:40:08;;;;;;;5.03;2.67;;;;;;;16.83;43.15;98516.00;5062220;28;20245;-59
2022/04/30 16:42:34;;;;;;;4.30;2.40;;;;;;;16.83;45.43;98513.38;5058891;28;20063;-60
2022/04/30 16:45:00;;;;;;;4.35;2.10;;;;;;;16.77;45.92;98517.53;5061684;28;20103;-60
2022/04/30 16:47:26;;;;;;;5.00;2.67;;;;;;;16.79;43.17;98512.91;5060142;28;20473;-60
2022/04/30 16:49:52;;;;;;;6.90;3.80;;;;;;;16.84;41.50;98515.00;5059830;28;20038;-60
2022/04/30 16:52:21;;;;;;;5.80;3.47;;;;;;;16.90;41.29;98515.09;5061529;28;20028;-61
2022/04/30 16:57:32;;;;;;;5.15;2.35;;;;;;;16.48;48.24;98465.94;5069029;28;20035;-59
2022/04/30 17:00:00;;;;;;;6.53;2.45;;;;;;;16.72;48.74;98512.06;5048284;28;20124;-59
